createdAt,value
2023-05-17T00:01:11.979Z,8.86
2023-05-17T00:03:42.319Z,8.83
2023-05-17T00:06:13.001Z,8.77
2023-05-17T00:08:45.954Z,8.70
2023-05-17T00:11:16.258Z,8.70
2023-05-17T00:13:46.452Z,8.69
2023-05-17T00:16:17.894Z,8.64
2023-05-17T00:18:48.256Z,8.63
2023-05-17T00:21:18.536Z,8.64
2023-05-17T00:23:51.354Z,8.63
2023-05-17T00:26:21.581Z,8.65
2023-05-17T00:28:51.764Z,8.65
2023-05-17T00:31:21.934Z,8.61
2023-05-17T00:33:52.152Z,8.56
2023-05-17T00:36:22.456Z,8.53
2023-05-17T00:38:55.210Z,8.53
2023-05-17T00:41:25.530Z,8.49
2023-05-17T00:43:56.041Z,8.45
2023-05-17T00:46:26.320Z,8.41
2023-05-17T00:48:56.553Z,8.36
2023-05-17T00:51:26.859Z,8.33
2023-05-17T00:53:59.605Z,8.32
2023-05-17T00:56:29.817Z,8.30
2023-05-17T00:58:59.989Z,8.27
2023-05-17T01:01:30.359Z,8.22
2023-05-17T01:04:00.868Z,8.11
2023-05-17T01:06:31.472Z,8.10
2023-05-17T01:09:04.810Z,8.00
2023-05-17T01:11:43.683Z,7.98
2023-05-17T01:14:26.816Z,8.02
2023-05-17T01:17:00.083Z,8.06
2023-05-17T01:19:48.183Z,8.07
2023-05-17T01:22:24.202Z,8.09
2023-05-17T01:25:07.986Z,8.10
2023-05-17T01:27:44.447Z,8.07
2023-05-17T01:30:18.404Z,8.04
2023-05-17T01:32:49.032Z,8.04
2023-05-17T01:35:19.482Z,8.05
2023-05-17T01:37:49.744Z,8.04
2023-05-17T01:40:20.663Z,8.02
2023-05-17T01:42:58.197Z,7.98
2023-05-17T01:45:31.276Z,7.95
2023-05-17T01:48:10.092Z,7.90
2023-05-17T01:50:41.893Z,7.85
2023-05-17T01:53:15.080Z,7.83
2023-05-17T01:55:51.514Z,7.83
2023-05-17T01:58:25.680Z,7.79
2023-05-17T02:00:58.238Z,7.82
2023-05-17T02:03:31.213Z,7.80
2023-05-17T02:06:01.516Z,7.81
2023-05-17T02:08:31.712Z,7.77
2023-05-17T02:11:01.954Z,7.66
2023-05-17T02:13:36.571Z,7.64
2023-05-17T02:16:07.591Z,7.69
2023-05-17T02:18:38.480Z,7.71
2023-05-17T02:21:10.250Z,7.67
2023-05-17T02:23:40.636Z,7.65
2023-05-17T02:26:10.912Z,7.65
2023-05-17T02:28:43.939Z,7.63
2023-05-17T02:31:14.106Z,7.66
2023-05-17T02:33:44.317Z,7.69
2023-05-17T02:36:14.557Z,7.72
2023-05-17T02:38:44.776Z,7.77
2023-05-17T02:41:15.954Z,7.78
2023-05-17T02:43:48.851Z,7.82
2023-05-17T02:46:19.439Z,7.83
2023-05-17T02:48:50.924Z,7.85
2023-05-17T02:51:21.218Z,7.84
2023-05-17T02:53:51.631Z,7.82
2023-05-17T02:56:22.095Z,7.77
2023-05-17T02:58:55.748Z,7.76
2023-05-17T03:01:26.478Z,7.71
2023-05-17T03:03:57.103Z,7.71
2023-05-17T03:06:27.752Z,7.68
2023-05-17T03:08:58.060Z,7.62
2023-05-17T03:11:28.977Z,7.56
2023-05-17T03:14:03.757Z,7.44
2023-05-17T03:16:35.369Z,7.40
2023-05-17T03:19:05.766Z,7.38
2023-05-17T03:21:36.450Z,7.34
2023-05-17T03:24:08.036Z,7.27
2023-05-17T03:26:40.000Z,7.19
2023-05-17T03:29:14.794Z,7.17
2023-05-17T03:31:47.323Z,7.22
2023-05-17T03:34:18.359Z,7.30
2023-05-17T03:36:48.677Z,7.35
2023-05-17T03:39:19.087Z,7.36
2023-05-17T03:41:49.421Z,7.43
2023-05-17T03:44:22.432Z,7.51
2023-05-17T03:46:55.322Z,7.59
2023-05-17T03:49:26.819Z,7.66
2023-05-17T03:51:57.486Z,7.71
2023-05-17T03:54:27.779Z,7.76
2023-05-17T03:56:58.066Z,7.81
2023-05-17T03:59:30.993Z,7.77
2023-05-17T04:02:01.533Z,7.74
2023-05-17T04:04:33.087Z,7.79
2023-05-17T04:07:03.297Z,7.86
2023-05-17T04:09:35.282Z,7.94
2023-05-17T04:12:05.554Z,8.01
2023-05-17T04:14:38.759Z,8.11
2023-05-17T04:17:09.186Z,8.19
2023-05-17T04:19:39.596Z,8.22
2023-05-17T04:22:09.877Z,8.26
2023-05-17T04:24:40.258Z,8.35
2023-05-17T04:27:10.641Z,8.40
2023-05-17T04:29:43.700Z,8.43
2023-05-17T04:32:16.954Z,8.53
2023-05-17T04:34:47.169Z,8.62
2023-05-17T04:37:20.756Z,8.72
2023-05-17T04:39:54.311Z,8.83
2023-05-17T04:42:24.648Z,8.98
2023-05-17T04:45:01.726Z,9.06
2023-05-17T04:47:33.531Z,9.15
2023-05-17T04:50:05.859Z,9.21
2023-05-17T04:52:38.692Z,9.23
2023-05-17T04:55:09.897Z,9.24
2023-05-17T04:57:40.609Z,9.22
2023-05-17T05:00:17.319Z,9.29
2023-05-17T05:02:52.904Z,9.26
2023-05-17T05:05:25.294Z,9.17
2023-05-17T05:07:55.611Z,9.21
2023-05-17T05:10:28.826Z,9.25
2023-05-17T05:12:59.781Z,9.30
2023-05-17T05:15:32.639Z,9.34
2023-05-17T05:18:04.029Z,9.49
2023-05-17T05:20:34.980Z,9.58
2023-05-17T05:23:07.949Z,9.59
2023-05-17T05:25:41.301Z,9.60
2023-05-17T05:28:11.513Z,9.72
2023-05-17T05:30:46.893Z,9.82
2023-05-17T05:33:18.305Z,9.83
2023-05-17T05:35:49.549Z,9.88
2023-05-17T05:38:19.750Z,9.88
2023-05-17T05:40:50.905Z,9.96
2023-05-17T05:43:21.079Z,10.04
2023-05-17T05:45:53.863Z,9.91
2023-05-17T05:48:25.182Z,9.90
2023-05-17T05:50:55.609Z,9.96
2023-05-17T05:53:25.791Z,9.94
2023-05-17T05:55:58.367Z,9.97
2023-05-17T05:58:29.102Z,9.97
2023-05-17T06:01:05.320Z,9.85
2023-05-17T06:03:36.406Z,9.82
2023-05-17T06:06:06.936Z,9.77
2023-05-17T06:08:37.107Z,9.73
2023-05-17T06:11:07.545Z,9.75
2023-05-17T06:13:37.735Z,9.90
2023-05-17T06:16:10.685Z,9.90
2023-05-17T06:18:41.166Z,9.99
2023-05-17T06:21:13.587Z,10.01
2023-05-17T06:23:43.750Z,10.14
2023-05-17T06:26:13.963Z,10.29
2023-05-17T06:28:44.113Z,10.30
2023-05-17T06:31:17.760Z,10.40
2023-05-17T06:33:49.337Z,10.48
2023-05-17T06:36:19.477Z,10.47
2023-05-17T06:38:49.669Z,10.58
2023-05-17T06:41:19.856Z,10.63
2023-05-17T06:43:50.100Z,10.64
2023-05-17T06:46:23.015Z,10.67
2023-05-17T06:48:53.279Z,10.78
2023-05-17T06:51:23.631Z,10.99
2023-05-17T06:53:53.846Z,11.22
2023-05-17T06:56:24.756Z,11.35
2023-05-17T06:58:54.903Z,11.55
2023-05-17T07:01:28.269Z,11.84
2023-05-17T07:03:58.609Z,12.13
2023-05-17T07:06:28.827Z,12.20
2023-05-17T07:08:59.018Z,12.36
2023-05-17T07:11:29.180Z,12.34
2023-05-17T07:13:59.330Z,12.30
2023-05-17T07:16:32.119Z,12.59
2023-05-17T07:19:02.419Z,12.77
2023-05-17T07:21:32.720Z,12.95
2023-05-17T07:24:02.997Z,13.03
2023-05-17T07:26:33.181Z,13.05
2023-05-17T07:29:03.327Z,13.17
2023-05-17T07:31:36.510Z,13.33
2023-05-17T07:34:06.788Z,13.63
2023-05-17T07:36:37.084Z,13.86
2023-05-17T07:39:08.976Z,13.52
2023-05-17T07:41:39.941Z,13.29
2023-05-17T07:44:10.081Z,13.26
2023-05-17T07:46:43.016Z,13.81
2023-05-17T07:49:13.267Z,13.98
2023-05-17T07:51:43.569Z,14.15
2023-05-17T07:54:16.951Z,14.15
2023-05-17T07:56:47.166Z,14.05
2023-05-17T07:59:17.369Z,13.84
2023-05-17T08:01:50.346Z,13.75
2023-05-17T08:04:21.166Z,13.79
2023-05-17T08:06:51.379Z,13.49
2023-05-17T08:09:21.592Z,13.47
2023-05-17T08:11:51.924Z,13.58
2023-05-17T08:14:24.446Z,13.51
2023-05-17T08:16:57.249Z,13.30
2023-05-17T08:19:27.701Z,13.23
2023-05-17T08:22:01.251Z,13.25
2023-05-17T08:24:31.465Z,13.63
2023-05-17T08:27:03.964Z,14.34
2023-05-17T08:29:34.107Z,14.37
2023-05-17T08:32:07.300Z,14.33
2023-05-17T08:34:37.496Z,14.22
2023-05-17T08:37:08.335Z,14.12
2023-05-17T08:39:38.610Z,15.34
2023-05-17T08:42:11.118Z,16.52
2023-05-17T08:44:42.357Z,16.59
2023-05-17T08:47:26.551Z,16.82
2023-05-17T08:50:00.224Z,15.91
2023-05-17T08:52:33.150Z,15.57
2023-05-17T08:55:05.548Z,14.96
2023-05-17T08:57:37.902Z,14.33
2023-05-17T09:00:12.710Z,13.78
2023-05-17T09:02:45.667Z,13.40
2023-05-17T09:05:16.733Z,13.27
2023-05-17T09:07:47.310Z,13.18
2023-05-17T09:10:17.694Z,13.01
2023-05-17T09:12:48.311Z,13.01
2023-05-17T09:15:20.107Z,13.07
2023-05-17T09:17:57.574Z,13.13
2023-05-17T09:20:34.309Z,13.24
2023-05-17T09:23:04.904Z,13.31
2023-05-17T09:25:35.115Z,13.66
2023-05-17T09:28:09.378Z,14.03
2023-05-17T09:30:42.295Z,14.04
2023-05-17T09:33:17.764Z,13.98
2023-05-17T09:35:49.297Z,14.09
2023-05-17T09:38:19.366Z,14.14
2023-05-17T09:40:51.239Z,14.30
2023-05-17T09:43:27.376Z,14.44
2023-05-17T09:46:01.029Z,14.57
2023-05-17T09:48:34.232Z,14.69
2023-05-17T09:51:04.976Z,15.54
2023-05-17T09:53:40.079Z,16.18
2023-05-17T09:56:11.051Z,15.75
2023-05-17T09:58:41.320Z,15.27
2023-05-17T10:01:11.853Z,14.90
2023-05-17T10:03:44.857Z,14.56
2023-05-17T10:06:23.805Z,14.53
2023-05-17T10:09:06.924Z,14.43
2023-05-17T10:11:39.119Z,14.59
2023-05-17T10:14:13.499Z,14.53
2023-05-17T10:16:44.287Z,14.53
2023-05-17T10:19:19.849Z,14.54
2023-05-17T10:21:51.273Z,14.65
2023-05-17T10:24:24.998Z,14.78
2023-05-17T10:26:55.658Z,15.42
2023-05-17T10:29:26.498Z,16.00
2023-05-17T10:31:56.877Z,16.01
2023-05-17T10:34:31.231Z,15.90
2023-05-17T10:37:01.795Z,15.43
2023-05-17T10:39:32.463Z,15.13
2023-05-17T10:42:14.361Z,15.41
2023-05-17T10:44:45.654Z,15.74
2023-05-17T10:47:17.879Z,17.03
2023-05-17T10:49:52.164Z,18.40
2023-05-17T10:52:24.818Z,19.50
2023-05-17T10:54:57.126Z,20.01
2023-05-17T11:00:12.595Z,18.57
2023-05-17T11:02:43.929Z,17.96
2023-05-17T11:05:29.921Z,17.22
2023-05-17T11:08:15.932Z,16.68
2023-05-17T11:11:14.284Z,16.33
2023-05-17T11:13:55.305Z,16.65
2023-05-17T11:16:31.042Z,19.10
2023-05-17T11:19:10.674Z,20.49
2023-05-17T11:21:51.853Z,20.63
2023-05-17T11:24:28.980Z,19.47
2023-05-17T11:27:01.513Z,18.75
2023-05-17T11:29:32.963Z,18.81
2023-05-17T11:32:09.065Z,18.82
2023-05-17T11:34:39.486Z,18.59
2023-05-17T11:37:28.843Z,18.77
2023-05-17T11:40:07.119Z,19.14
2023-05-17T11:42:38.505Z,20.51
2023-05-17T11:45:10.139Z,21.98
2023-05-17T11:47:43.461Z,23.24
2023-05-17T11:50:15.106Z,23.59
2023-05-17T11:52:48.343Z,21.69
2023-05-17T11:55:19.132Z,20.56
2023-05-17T11:57:49.492Z,20.19
2023-05-17T12:00:20.716Z,19.26
2023-05-17T12:02:51.019Z,18.67
2023-05-17T12:05:23.268Z,18.13
2023-05-17T12:07:56.121Z,19.39
2023-05-17T12:10:26.721Z,18.96
2023-05-17T12:12:57.115Z,20.15
2023-05-17T12:15:28.354Z,20.73
2023-05-17T12:17:58.751Z,22.06
2023-05-17T12:20:30.275Z,21.20
2023-05-17T12:23:03.516Z,20.16
2023-05-17T12:25:33.822Z,19.65
2023-05-17T12:28:16.548Z,20.76
2023-05-17T12:30:47.268Z,22.66
2023-05-17T12:33:17.995Z,22.85
2023-05-17T12:35:48.627Z,20.94
2023-05-17T12:38:21.884Z,19.90
2023-05-17T12:40:52.477Z,19.37
2023-05-17T12:43:24.492Z,19.90
2023-05-17T12:45:56.079Z,19.56
2023-05-17T12:48:29.770Z,21.28
2023-05-17T12:51:00.029Z,23.35
2023-05-17T12:53:41.172Z,22.47
2023-05-17T12:56:11.943Z,21.31
2023-05-17T12:58:42.120Z,20.34
2023-05-17T13:01:14.779Z,19.81
2023-05-17T13:03:45.076Z,19.41
2023-05-17T13:06:15.359Z,19.26
2023-05-17T13:08:48.254Z,20.74
2023-05-17T13:11:18.693Z,23.44
2023-05-17T13:13:49.233Z,21.84
2023-05-17T13:16:19.441Z,20.28
2023-05-17T13:18:53.809Z,20.38
2023-05-17T13:21:24.735Z,20.49
2023-05-17T13:23:57.576Z,19.56
2023-05-17T13:26:27.821Z,18.93
2023-05-17T13:28:58.064Z,18.92
2023-05-17T13:31:28.352Z,19.27
2023-05-17T13:33:58.668Z,18.96
2023-05-17T13:36:31.651Z,19.04
2023-05-17T13:39:04.906Z,22.08
2023-05-17T13:41:35.192Z,22.69
2023-05-17T13:44:05.348Z,21.25
2023-05-17T13:46:35.716Z,21.88
2023-05-17T13:49:08.099Z,24.20
2023-05-17T13:51:39.794Z,25.15
2023-05-17T13:54:13.445Z,25.88
2023-05-17T13:56:43.843Z,25.29
2023-05-17T13:59:14.037Z,24.17
2023-05-17T14:01:45.577Z,22.62
2023-05-17T14:04:15.897Z,23.43
2023-05-17T14:06:48.636Z,22.45
2023-05-17T14:09:22.174Z,21.43
2023-05-17T14:11:52.385Z,20.89
2023-05-17T14:14:25.264Z,20.49
2023-05-17T14:16:55.477Z,22.82
2023-05-17T14:19:25.805Z,25.13
2023-05-17T14:21:56.196Z,26.01
2023-05-17T14:24:29.148Z,26.91
2023-05-17T14:26:59.403Z,27.38
2023-05-17T14:29:30.564Z,25.33
2023-05-17T14:32:00.921Z,23.00
2023-05-17T14:34:31.181Z,23.70
2023-05-17T14:37:01.440Z,25.55
2023-05-17T14:39:34.340Z,25.91
2023-05-17T14:42:04.586Z,26.10
2023-05-17T14:44:34.958Z,26.69
2023-05-17T14:47:05.285Z,26.65
2023-05-17T14:49:35.496Z,26.74
2023-05-17T14:52:05.703Z,26.71
2023-05-17T14:54:38.702Z,26.62
2023-05-17T14:57:09.034Z,27.24
2023-05-17T14:59:39.576Z,27.01
2023-05-17T15:02:11.898Z,26.11
2023-05-17T15:04:42.207Z,23.91
2023-05-17T15:07:12.505Z,23.38
2023-05-17T15:09:46.102Z,22.09
2023-05-17T15:12:16.398Z,21.97
2023-05-17T15:14:47.847Z,21.65
2023-05-17T15:17:18.168Z,20.74
2023-05-17T15:19:48.546Z,20.84
2023-05-17T15:22:20.232Z,20.02
2023-05-17T15:24:54.459Z,19.41
2023-05-17T15:27:24.663Z,19.61
2023-05-17T15:29:55.044Z,19.62
2023-05-17T15:32:25.317Z,19.75
2023-05-17T15:34:55.819Z,19.71
2023-05-17T15:37:26.378Z,19.66
2023-05-17T15:39:59.304Z,19.16
2023-05-17T15:42:29.420Z,18.86
2023-05-17T15:44:59.607Z,18.58
2023-05-17T15:47:42.661Z,18.31
2023-05-17T15:50:14.579Z,18.20
2023-05-17T15:52:44.943Z,18.06
2023-05-17T15:55:17.913Z,17.70
2023-05-17T15:57:48.364Z,17.39
2023-05-17T16:00:19.369Z,17.39
2023-05-17T16:02:49.779Z,17.41
2023-05-17T16:05:20.079Z,17.32
2023-05-17T16:07:50.231Z,17.26
2023-05-17T16:10:23.293Z,17.23
2023-05-17T16:12:53.506Z,17.02
2023-05-17T16:15:24.024Z,17.00
2023-05-17T16:17:54.503Z,16.72
2023-05-17T16:20:24.877Z,16.61
2023-05-17T16:22:55.107Z,16.54
2023-05-17T16:25:28.944Z,16.34
2023-05-17T16:27:59.464Z,16.27
2023-05-17T16:30:29.805Z,16.22
2023-05-17T16:33:00.157Z,16.11
2023-05-17T16:35:31.274Z,15.96
2023-05-17T16:38:01.657Z,15.86
2023-05-17T16:40:34.645Z,15.81
2023-05-17T16:43:04.865Z,16.00
2023-05-17T16:45:35.192Z,16.08
2023-05-17T16:48:05.496Z,15.96
2023-05-17T16:50:35.886Z,16.02
2023-05-17T16:53:06.110Z,16.17
2023-05-17T16:55:39.336Z,16.22
2023-05-17T16:58:09.563Z,16.18
2023-05-17T17:00:39.802Z,16.20
2023-05-17T17:03:10.202Z,16.15
2023-05-17T17:05:40.864Z,16.28
2023-05-17T17:08:11.088Z,16.34
2023-05-17T17:10:43.928Z,16.32
2023-05-17T17:13:14.135Z,16.24
2023-05-17T17:15:44.435Z,16.21
2023-05-17T17:18:14.732Z,16.22
2023-05-17T17:20:45.446Z,16.16
2023-05-17T17:23:15.954Z,16.12
2023-05-17T17:25:48.831Z,15.90
2023-05-17T17:28:19.187Z,15.79
2023-05-17T17:30:51.541Z,15.83
2023-05-17T17:33:22.118Z,15.80
2023-05-17T17:35:52.580Z,15.71
2023-05-17T17:38:23.041Z,15.68
2023-05-17T17:40:55.944Z,15.65
2023-05-17T17:43:26.230Z,15.60
2023-05-17T17:45:56.667Z,15.39
2023-05-17T17:48:27.293Z,15.35
2023-05-17T17:50:57.612Z,15.29
2023-05-17T17:53:28.993Z,15.25
2023-05-17T17:56:01.853Z,15.26
2023-05-17T17:58:32.716Z,15.30
2023-05-17T18:01:03.121Z,15.18
2023-05-17T18:03:33.379Z,15.16
2023-05-17T18:06:04.902Z,15.13
2023-05-17T18:08:35.089Z,15.06
2023-05-17T18:11:08.062Z,14.96
2023-05-17T18:13:38.776Z,14.99
2023-05-17T18:16:09.540Z,14.92
2023-05-17T18:18:41.031Z,14.91
2023-05-17T18:21:11.648Z,14.96
2023-05-17T18:23:41.866Z,14.94
2023-05-17T18:26:15.082Z,14.99
2023-05-17T18:28:45.676Z,14.84
2023-05-17T18:31:16.043Z,14.82
2023-05-17T18:33:46.457Z,14.74
2023-05-17T18:36:16.844Z,14.72
2023-05-17T18:38:47.663Z,14.64
2023-05-17T18:41:21.138Z,14.61
2023-05-17T18:43:51.385Z,14.68
2023-05-17T18:46:21.798Z,14.60
2023-05-17T18:48:52.828Z,14.57
2023-05-17T18:51:23.078Z,14.54
2023-05-17T18:53:53.966Z,14.45
2023-05-17T18:56:26.923Z,14.34
2023-05-17T18:58:57.675Z,14.28
2023-05-17T19:01:28.519Z,14.22
2023-05-17T19:03:59.181Z,14.20
2023-05-17T19:06:32.029Z,14.20
2023-05-17T19:09:04.510Z,14.14
2023-05-17T19:11:37.318Z,14.09
2023-05-17T19:14:07.550Z,14.09
2023-05-17T19:16:37.772Z,14.06
2023-05-17T19:19:08.141Z,13.99
2023-05-17T19:21:38.467Z,13.95
2023-05-17T19:24:09.515Z,13.91
2023-05-17T19:26:42.523Z,13.86
2023-05-17T19:29:12.770Z,13.80
2023-05-17T19:31:43.019Z,13.72
2023-05-17T19:34:13.291Z,13.71
2023-05-17T19:36:43.496Z,13.66
2023-05-17T19:39:13.729Z,13.61
2023-05-17T19:41:46.556Z,13.59
2023-05-17T19:44:16.853Z,13.55
2023-05-17T19:46:47.280Z,13.53
2023-05-17T19:49:17.589Z,13.50
2023-05-17T19:51:48.398Z,13.43
2023-05-17T19:54:18.669Z,13.41
2023-05-17T19:56:51.507Z,13.40
2023-05-17T19:59:21.713Z,13.36
2023-05-17T20:01:52.104Z,13.28
2023-05-17T20:04:22.385Z,13.25
2023-05-17T20:06:52.711Z,13.18
2023-05-17T20:09:25.108Z,13.16
2023-05-17T20:11:59.624Z,13.11
2023-05-17T20:14:30.293Z,13.07
2023-05-17T20:17:00.493Z,13.06
2023-05-17T20:19:30.893Z,13.01
2023-05-17T20:22:01.914Z,13.00
2023-05-17T20:24:35.005Z,12.98
2023-05-17T20:27:08.155Z,12.95
2023-05-17T20:29:38.653Z,12.90
2023-05-17T20:32:09.530Z,12.86
2023-05-17T20:34:39.777Z,12.82
2023-05-17T20:37:09.973Z,12.79
2023-05-17T20:39:40.213Z,12.76
2023-05-17T20:42:18.342Z,12.73
2023-05-17T20:44:49.278Z,12.70
2023-05-17T20:47:19.532Z,12.67
2023-05-17T20:49:50.469Z,12.64
2023-05-17T20:52:38.023Z,12.58
2023-05-17T20:55:10.947Z,12.54
2023-05-17T20:57:43.774Z,12.53
2023-05-17T21:00:17.181Z,12.51
2023-05-17T21:02:47.748Z,12.50
2023-05-17T21:05:18.133Z,12.49
2023-05-17T21:07:50.674Z,12.43
2023-05-17T21:10:21.027Z,12.36
2023-05-17T21:12:53.910Z,12.32
2023-05-17T21:15:24.434Z,12.29
2023-05-17T21:17:54.813Z,12.20
2023-05-17T21:20:25.282Z,12.17
2023-05-17T21:22:55.560Z,12.14
2023-05-17T21:25:26.145Z,12.11
2023-05-17T21:27:59.130Z,12.10
2023-05-17T21:30:30.058Z,12.03
2023-05-17T21:33:00.650Z,12.01
2023-05-17T21:35:31.106Z,11.96
2023-05-17T21:38:01.302Z,11.89
2023-05-17T21:40:31.961Z,11.84
2023-05-17T21:43:05.093Z,11.81
2023-05-17T21:45:35.508Z,11.77
2023-05-17T21:48:05.859Z,11.73
2023-05-17T21:50:36.203Z,11.71
2023-05-17T21:53:10.132Z,11.69
2023-05-17T21:55:56.419Z,11.69
2023-05-17T21:58:33.509Z,11.65
2023-05-17T22:01:04.541Z,11.62
2023-05-17T22:03:34.946Z,11.57
2023-05-17T22:06:05.311Z,11.58
2023-05-17T22:08:35.551Z,11.55
2023-05-17T22:11:05.953Z,11.50
2023-05-17T22:13:38.799Z,11.48
2023-05-17T22:16:09.888Z,11.40
2023-05-17T22:18:40.190Z,11.38
2023-05-17T22:21:14.659Z,11.39
2023-05-17T22:23:45.078Z,11.42
2023-05-17T22:26:15.523Z,11.42
2023-05-17T22:28:48.402Z,11.37
2023-05-17T22:31:18.739Z,11.38
2023-05-17T22:33:49.087Z,11.35
2023-05-17T22:36:19.752Z,11.31
2023-05-17T22:38:50.072Z,11.28
2023-05-17T22:41:20.335Z,11.28
2023-05-17T22:43:53.219Z,11.27
2023-05-17T22:46:24.577Z,11.22
2023-05-17T22:48:54.844Z,11.19
2023-05-17T22:51:25.100Z,11.18
2023-05-17T22:53:55.355Z,11.17
2023-05-17T22:56:26.434Z,11.15
2023-05-17T22:58:59.314Z,11.14
2023-05-17T23:01:31.611Z,11.17
2023-05-17T23:04:01.827Z,11.17
2023-05-17T23:06:34.586Z,11.16
2023-05-17T23:09:06.332Z,11.14
2023-05-17T23:11:41.217Z,11.12
2023-05-17T23:14:14.363Z,11.10
2023-05-17T23:16:44.624Z,11.09
2023-05-17T23:19:17.326Z,11.12
2023-05-17T23:21:49.221Z,11.09
2023-05-17T23:24:19.359Z,11.07
2023-05-17T23:26:50.203Z,11.05
2023-05-17T23:29:22.954Z,11.02
2023-05-17T23:31:53.302Z,11.01
2023-05-17T23:34:24.026Z,11.00
2023-05-17T23:36:54.465Z,10.98
2023-05-17T23:39:24.670Z,10.94
2023-05-17T23:41:55.519Z,10.94
2023-05-17T23:44:28.740Z,10.90
2023-05-17T23:47:00.163Z,10.90
2023-05-17T23:49:30.511Z,10.89
2023-05-17T23:52:02.274Z,10.83
2023-05-17T23:54:32.572Z,10.79
2023-05-17T23:57:02.825Z,10.77
2023-05-17T23:59:36.742Z,10.72
